sensor_id;sensor_type;location;lat;lon;timestamp;pressure;altitude;pressure_sealevel;temperature;humidity
54022;BME280;39936;51.058;17.220;2024-03-08T00:03:01;102528.00;;;-1.29;100.00
54022;BME280;39936;51.058;17.220;2024-03-08T00:06:26;102529.65;;;-1.33;100.00
54022;BME280;39936;51.058;17.220;2024-03-08T00:09:46;102528.86;;;-1.37;100.00
54022;BME280;39936;51.058;17.220;2024-03-08T00:13:08;102526.39;;;-1.40;100.00
54022;BME280;39936;51.058;17.220;2024-03-08T00:16:28;102525.44;;;-1.43;100.00
54022;BME280;39936;51.058;17.220;2024-03-08T00:19:50;102527.36;;;-1.43;100.00
54022;BME280;39936;51.058;17.220;2024-03-08T00:23:11;102529.36;;;-1.38;100.00
54022;BME280;39936;51.058;17.220;2024-03-08T00:26:32;102521.48;;;-1.43;100.00
54022;BME280;39936;51.058;17.220;2024-03-08T00:29:50;102526.99;;;-1.44;100.00
54022;BME280;39936;51.058;17.220;2024-03-08T00:33:16;102517.60;;;-1.61;100.00
54022;BME280;39936;51.058;17.220;2024-03-08T00:36:41;102534.55;;;-1.59;100.00
54022;BME280;39936;51.058;17.220;2024-03-08T00:40:08;102529.09;;;-1.71;100.00
54022;BME280;39936;51.058;17.220;2024-03-08T00:43:34;102531.48;;;-1.88;100.00
54022;BME280;39936;51.058;17.220;2024-03-08T00:46:55;102525.83;;;-1.97;100.00
54022;BME280;39936;51.058;17.220;2024-03-08T00:50:23;102520.92;;;-2.06;100.00
54022;BME280;39936;51.058;17.220;2024-03-08T00:53:48;102510.95;;;-2.16;100.00
54022;BME280;39936;51.058;17.220;2024-03-08T00:57:10;102510.55;;;-2.14;100.00
54022;BME280;39936;51.058;17.220;2024-03-08T01:00:28;102508.83;;;-2.14;100.00
54022;BME280;39936;51.058;17.220;2024-03-08T01:03:49;102509.62;;;-2.14;100.00
54022;BME280;39936;51.058;17.220;2024-03-08T01:07:10;102507.86;;;-2.10;100.00
54022;BME280;39936;51.058;17.220;2024-03-08T01:10:32;102483.91;;;-2.28;100.00
54022;BME280;39936;51.058;17.220;2024-03-08T01:13:49;102478.50;;;-2.38;100.00
54022;BME280;39936;51.058;17.220;2024-03-08T01:17:18;102499.17;;;-2.28;100.00
54022;BME280;39936;51.058;17.220;2024-03-08T01:20:40;102491.81;;;-2.37;100.00
54022;BME280;39936;51.058;17.220;2024-03-08T01:24:01;102481.10;;;-2.48;100.00
54022;BME280;39936;51.058;17.220;2024-03-08T01:27:26;102484.33;;;-2.50;100.00
54022;BME280;39936;51.058;17.220;2024-03-08T01:30:44;102487.29;;;-2.45;100.00
54022;BME280;39936;51.058;17.220;2024-03-08T01:34:05;102485.98;;;-2.42;100.00
54022;BME280;39936;51.058;17.220;2024-03-08T01:37:27;102482.47;;;-2.43;100.00
54022;BME280;39936;51.058;17.220;2024-03-08T01:40:45;102478.03;;;-2.49;100.00
54022;BME280;39936;51.058;17.220;2024-03-08T01:44:08;102478.95;;;-2.58;100.00
54022;BME280;39936;51.058;17.220;2024-03-08T01:47:36;102434.16;;;-2.92;100.00
54022;BME280;39936;51.058;17.220;2024-03-08T01:50:58;102475.69;;;-2.68;100.00
54022;BME280;39936;51.058;17.220;2024-03-08T01:54:20;102474.65;;;-2.73;100.00
54022;BME280;39936;51.058;17.220;2024-03-08T01:57:39;102473.52;;;-2.81;100.00
54022;BME280;39936;51.058;17.220;2024-03-08T02:00:59;102444.59;;;-3.00;100.00
54022;BME280;39936;51.058;17.220;2024-03-08T02:04:24;102476.55;;;-2.82;100.00
54022;BME280;39936;51.058;17.220;2024-03-08T02:07:46;102474.94;;;-2.82;100.00
54022;BME280;39936;51.058;17.220;2024-03-08T02:11:08;102465.36;;;-2.83;100.00
54022;BME280;39936;51.058;17.220;2024-03-08T02:14:29;102462.55;;;-2.85;100.00
54022;BME280;39936;51.058;17.220;2024-03-08T02:17:47;102464.10;;;-2.81;100.00
54022;BME280;39936;51.058;17.220;2024-03-08T02:21:08;102467.90;;;-2.83;100.00
54022;BME280;39936;51.058;17.220;2024-03-08T02:24:29;102462.84;;;-2.87;100.00
54022;BME280;39936;51.058;17.220;2024-03-08T02:27:51;102425.35;;;-3.13;100.00
54022;BME280;39936;51.058;17.220;2024-03-08T02:31:20;102459.00;;;-2.99;100.00
54022;BME280;39936;51.058;17.220;2024-03-08T02:34:42;102456.80;;;-3.00;100.00
54022;BME280;39936;51.058;17.220;2024-03-08T02:38:07;102456.55;;;-3.07;100.00
54022;BME280;39936;51.058;17.220;2024-03-08T02:41:29;102449.38;;;-3.06;100.00
54022;BME280;39936;51.058;17.220;2024-03-08T02:44:51;102446.02;;;-3.07;100.00
54022;BME280;39936;51.058;17.220;2024-03-08T02:48:17;102444.09;;;-3.07;100.00
54022;BME280;39936;51.058;17.220;2024-03-08T02:51:37;102436.37;;;-3.12;100.00
54022;BME280;39936;51.058;17.220;2024-03-08T02:55:01;102417.79;;;-3.18;100.00
54022;BME280;39936;51.058;17.220;2024-03-08T02:58:27;102443.59;;;-2.99;100.00
54022;BME280;39936;51.058;17.220;2024-03-08T03:02:00;102418.73;;;-3.18;100.00
54022;BME280;39936;51.058;17.220;2024-03-08T03:05:18;102451.21;;;-3.02;100.00
54022;BME280;39936;51.058;17.220;2024-03-08T03:08:41;102449.48;;;-3.07;100.00
54022;BME280;39936;51.058;17.220;2024-03-08T03:12:05;102416.62;;;-3.31;100.00
54022;BME280;39936;51.058;17.220;2024-03-08T03:15:29;102448.20;;;-3.20;100.00
54022;BME280;39936;51.058;17.220;2024-03-08T03:18:47;102404.17;;;-3.52;100.00
54022;BME280;39936;51.058;17.220;2024-03-08T03:22:09;102437.59;;;-3.33;100.00
54022;BME280;39936;51.058;17.220;2024-03-08T03:25:35;102442.23;;;-3.30;100.00
54022;BME280;39936;51.058;17.220;2024-03-08T03:29:08;102439.19;;;-3.35;100.00
54022;BME280;39936;51.058;17.220;2024-03-08T03:32:28;102443.63;;;-3.30;100.00
54022;BME280;39936;51.058;17.220;2024-03-08T03:35:49;102434.13;;;-3.30;100.00
54022;BME280;39936;51.058;17.220;2024-03-08T03:39:16;102442.90;;;-3.33;100.00
54022;BME280;39936;51.058;17.220;2024-03-08T03:42:41;102443.93;;;-3.36;100.00
54022;BME280;39936;51.058;17.220;2024-03-08T03:46:06;102440.52;;;-3.39;100.00
54022;BME280;39936;51.058;17.220;2024-03-08T03:49:33;102443.10;;;-3.43;100.00
54022;BME280;39936;51.058;17.220;2024-03-08T03:52:57;102444.58;;;-3.45;100.00
54022;BME280;39936;51.058;17.220;2024-03-08T03:56:19;102448.01;;;-3.49;100.00
54022;BME280;39936;51.058;17.220;2024-03-08T03:59:45;102446.92;;;-3.51;100.00
54022;BME280;39936;51.058;17.220;2024-03-08T04:03:07;102448.00;;;-3.52;100.00
54022;BME280;39936;51.058;17.220;2024-03-08T04:06:33;102440.47;;;-3.57;100.00
54022;BME280;39936;51.058;17.220;2024-03-08T04:09:50;102437.78;;;-3.56;100.00
54022;BME280;39936;51.058;17.220;2024-03-08T04:13:16;102444.49;;;-3.53;100.00
54022;BME280;39936;51.058;17.220;2024-03-08T04:16:33;102440.73;;;-3.57;100.00
54022;BME280;39936;51.058;17.220;2024-03-08T04:19:53;102430.25;;;-3.68;100.00
54022;BME280;39936;51.058;17.220;2024-03-08T04:23:11;102443.91;;;-3.67;100.00
54022;BME280;39936;51.058;17.220;2024-03-08T04:26:36;102432.12;;;-3.76;100.00
54022;BME280;39936;51.058;17.220;2024-03-08T04:29:58;102442.79;;;-3.75;100.00
54022;BME280;39936;51.058;17.220;2024-03-08T04:33:15;102446.70;;;-3.75;100.00
54022;BME280;39936;51.058;17.220;2024-03-08T04:36:45;102438.71;;;-3.79;100.00
54022;BME280;39936;51.058;17.220;2024-03-08T04:40:14;102441.67;;;-3.82;100.00
54022;BME280;39936;51.058;17.220;2024-03-08T04:43:33;102439.60;;;-3.85;100.00
54022;BME280;39936;51.058;17.220;2024-03-08T04:46:54;102436.18;;;-3.90;100.00
54022;BME280;39936;51.058;17.220;2024-03-08T04:50:15;102431.95;;;-3.99;100.00
54022;BME280;39936;51.058;17.220;2024-03-08T04:53:36;102442.98;;;-3.90;100.00
54022;BME280;39936;51.058;17.220;2024-03-08T04:56:57;102439.58;;;-3.90;100.00
54022;BME280;39936;51.058;17.220;2024-03-08T05:00:28;102443.60;;;-3.89;100.00
54022;BME280;39936;51.058;17.220;2024-03-08T05:03:53;102439.50;;;-3.94;100.00
54022;BME280;39936;51.058;17.220;2024-03-08T05:07:19;102445.74;;;-3.93;100.00
54022;BME280;39936;51.058;17.220;2024-03-08T05:10:41;102446.78;;;-3.93;100.00
54022;BME280;39936;51.058;17.220;2024-03-08T05:14:05;102445.77;;;-3.87;100.00
54022;BME280;39936;51.058;17.220;2024-03-08T05:17:27;102444.13;;;-3.87;100.00
54022;BME280;39936;51.058;17.220;2024-03-08T05:20:46;102430.20;;;-3.95;100.00
54022;BME280;39936;51.058;17.220;2024-03-08T05:24:14;102406.99;;;-4.19;100.00
54022;BME280;39936;51.058;17.220;2024-03-08T05:27:40;102433.59;;;-4.07;100.00
54022;BME280;39936;51.058;17.220;2024-03-08T05:31:04;102437.45;;;-4.04;100.00
54022;BME280;39936;51.058;17.220;2024-03-08T05:34:25;102433.27;;;-4.03;100.00
54022;BME280;39936;51.058;17.220;2024-03-08T05:37:49;102427.43;;;-3.99;100.00
54022;BME280;39936;51.058;17.220;2024-03-08T05:41:05;102437.52;;;-3.87;100.00
54022;BME280;39936;51.058;17.220;2024-03-08T05:44:36;102439.93;;;-3.74;100.00
54022;BME280;39936;51.058;17.220;2024-03-08T05:48:00;102442.76;;;-3.63;100.00
54022;BME280;39936;51.058;17.220;2024-03-08T05:51:25;102440.78;;;-3.64;100.00
54022;BME280;39936;51.058;17.220;2024-03-08T05:54:43;102441.17;;;-3.68;100.00
54022;BME280;39936;51.058;17.220;2024-03-08T05:58:07;102448.84;;;-3.69;100.00
54022;BME280;39936;51.058;17.220;2024-03-08T06:01:30;102446.50;;;-3.64;100.00
54022;BME280;39936;51.058;17.220;2024-03-08T06:04:56;102451.89;;;-3.51;100.00
54022;BME280;39936;51.058;17.220;2024-03-08T06:08:25;102446.22;;;-3.48;100.00
54022;BME280;39936;51.058;17.220;2024-03-08T06:11:47;102439.16;;;-3.46;100.00
54022;BME280;39936;51.058;17.220;2024-03-08T06:15:16;102436.63;;;-3.41;100.00
54022;BME280;39936;51.058;17.220;2024-03-08T06:18:40;102451.39;;;-3.21;100.00
54022;BME280;39936;51.058;17.220;2024-03-08T06:22:02;102450.80;;;-3.05;100.00
54022;BME280;39936;51.058;17.220;2024-03-08T06:25:25;102456.20;;;-2.93;100.00
54022;BME280;39936;51.058;17.220;2024-03-08T06:28:47;102452.52;;;-2.85;100.00
54022;BME280;39936;51.058;17.220;2024-03-08T06:32:08;102448.72;;;-2.74;100.00
54022;BME280;39936;51.058;17.220;2024-03-08T06:35:37;102449.68;;;-2.57;100.00
54022;BME280;39936;51.058;17.220;2024-03-08T06:39:02;102445.68;;;-2.34;100.00
54022;BME280;39936;51.058;17.220;2024-03-08T06:42:31;102445.69;;;-2.27;100.00
54022;BME280;39936;51.058;17.220;2024-03-08T06:45:59;102435.03;;;-2.30;100.00
54022;BME280;39936;51.058;17.220;2024-03-08T06:49:16;102440.59;;;-2.19;100.00
54022;BME280;39936;51.058;17.220;2024-03-08T06:52:42;102432.58;;;-2.09;100.00
54022;BME280;39936;51.058;17.220;2024-03-08T06:56:07;102432.83;;;-2.01;100.00
54022;BME280;39936;51.058;17.220;2024-03-08T06:59:29;102436.13;;;-1.89;100.00
54022;BME280;39936;51.058;17.220;2024-03-08T07:02:53;102397.54;;;-1.94;100.00
54022;BME280;39936;51.058;17.220;2024-03-08T07:06:11;102437.91;;;-1.57;100.00
54022;BME280;39936;51.058;17.220;2024-03-08T07:09:34;102433.90;;;-1.48;100.00
54022;BME280;39936;51.058;17.220;2024-03-08T07:12:55;102432.57;;;-1.40;100.00
54022;BME280;39936;51.058;17.220;2024-03-08T07:16:21;102431.88;;;-1.32;100.00
54022;BME280;39936;51.058;17.220;2024-03-08T07:19:43;102431.97;;;-1.26;100.00
54022;BME280;39936;51.058;17.220;2024-03-08T07:23:05;102423.50;;;-1.22;100.00
54022;BME280;39936;51.058;17.220;2024-03-08T07:26:30;102432.96;;;-0.95;100.00
54022;BME280;39936;51.058;17.220;2024-03-08T07:30:00;102431.25;;;-0.77;100.00
54022;BME280;39936;51.058;17.220;2024-03-08T07:33:27;102433.77;;;-0.57;100.00
54022;BME280;39936;51.058;17.220;2024-03-08T07:36:44;102390.66;;;-0.69;100.00
54022;BME280;39936;51.058;17.220;2024-03-08T07:40:04;102431.29;;;-0.19;100.00
54022;BME280;39936;51.058;17.220;2024-03-08T07:43:35;102425.30;;;-0.03;100.00
54022;BME280;39936;51.058;17.220;2024-03-08T07:47:01;102425.85;;;-0.14;100.00
54022;BME280;39936;51.058;17.220;2024-03-08T07:50:28;102399.20;;;-0.21;100.00
54022;BME280;39936;51.058;17.220;2024-03-08T07:53:47;102421.27;;;-0.05;100.00
54022;BME280;39936;51.058;17.220;2024-03-08T07:57:12;102419.77;;;0.06;100.00
54022;BME280;39936;51.058;17.220;2024-03-08T08:00:34;102401.63;;;0.06;100.00
54022;BME280;39936;51.058;17.220;2024-03-08T08:04:00;102419.14;;;0.10;100.00
54022;BME280;39936;51.058;17.220;2024-03-08T08:07:25;102419.27;;;0.29;100.00
54022;BME280;39936;51.058;17.220;2024-03-08T08:10:39;102410.63;;;0.39;98.97
54022;BME280;39936;51.058;17.220;2024-03-08T08:14:04;102414.08;;;0.59;98.28
54022;BME280;39936;51.058;17.220;2024-03-08T08:17:25;102405.51;;;0.59;95.74
54022;BME280;39936;51.058;17.220;2024-03-08T08:20:45;102402.49;;;0.66;94.16
54022;BME280;39936;51.058;17.220;2024-03-08T08:24:04;102406.42;;;0.85;94.07
54022;BME280;39936;51.058;17.220;2024-03-08T08:27:46;102402.77;;;0.86;92.97
54022;BME280;39936;51.058;17.220;2024-03-08T08:31:10;102405.97;;;0.79;92.56
54022;BME280;39936;51.058;17.220;2024-03-08T08:34:28;102406.73;;;1.00;93.52
54022;BME280;39936;51.058;17.220;2024-03-08T08:37:51;102402.91;;;1.21;92.41
54022;BME280;39936;51.058;17.220;2024-03-08T08:41:12;102393.04;;;1.12;90.47
54022;BME280;39936;51.058;17.220;2024-03-08T08:44:38;102392.57;;;1.19;90.09
54022;BME280;39936;51.058;17.220;2024-03-08T08:48:04;102400.69;;;1.23;88.44
54022;BME280;39936;51.058;17.220;2024-03-08T08:51:30;102400.78;;;1.26;88.07
54022;BME280;39936;51.058;17.220;2024-03-08T08:54:54;102375.11;;;1.16;87.09
54022;BME280;39936;51.058;17.220;2024-03-08T08:58:13;102378.35;;;1.42;87.43
54022;BME280;39936;51.058;17.220;2024-03-08T09:01:36;102394.90;;;1.51;85.43
54022;BME280;39936;51.058;17.220;2024-03-08T09:04:59;102391.69;;;1.49;84.26
54022;BME280;39936;51.058;17.220;2024-03-08T09:08:20;102389.23;;;1.69;84.34
54022;BME280;39936;51.058;17.220;2024-03-08T09:11:43;102385.32;;;1.80;83.75
54022;BME280;39936;51.058;17.220;2024-03-08T09:15:06;102374.70;;;1.92;82.33
54022;BME280;39936;51.058;17.220;2024-03-08T09:18:32;102371.95;;;2.02;80.94
54022;BME280;39936;51.058;17.220;2024-03-08T09:21:55;102367.93;;;2.06;81.36
54022;BME280;39936;51.058;17.220;2024-03-08T09:25:12;102368.59;;;2.21;80.14
54022;BME280;39936;51.058;17.220;2024-03-08T09:28:34;102362.72;;;2.27;79.36
54022;BME280;39936;51.058;17.220;2024-03-08T09:31:56;102355.07;;;2.34;79.62
54022;BME280;39936;51.058;17.220;2024-03-08T09:35:14;102360.77;;;2.38;78.27
54022;BME280;39936;51.058;17.220;2024-03-08T09:38:31;102352.95;;;2.35;77.59
54022;BME280;39936;51.058;17.220;2024-03-08T09:41:54;102335.46;;;2.37;77.59
54022;BME280;39936;51.058;17.220;2024-03-08T09:45:15;102342.20;;;2.58;78.05
54022;BME280;39936;51.058;17.220;2024-03-08T09:48:38;102332.85;;;2.69;76.72
54022;BME280;39936;51.058;17.220;2024-03-08T09:52:00;102321.90;;;2.71;76.86
54022;BME280;39936;51.058;17.220;2024-03-08T09:55:33;102329.34;;;2.94;75.82
54022;BME280;39936;51.058;17.220;2024-03-08T09:59:07;102325.28;;;3.00;74.32
54022;BME280;39936;51.058;17.220;2024-03-08T10:02:46;102314.27;;;3.13;74.94
54022;BME280;39936;51.058;17.220;2024-03-08T10:06:14;102317.01;;;3.18;73.36
54022;BME280;39936;51.058;17.220;2024-03-08T10:09:33;102317.05;;;3.02;72.73
54022;BME280;39936;51.058;17.220;2024-03-08T10:12:59;102308.32;;;3.16;73.26
54022;BME280;39936;51.058;17.220;2024-03-08T10:16:29;102312.00;;;3.32;71.78
54022;BME280;39936;51.058;17.220;2024-03-08T10:19:59;102307.42;;;3.48;70.77
54022;BME280;39936;51.058;17.220;2024-03-08T10:23:31;102308.97;;;3.61;70.87
54022;BME280;39936;51.058;17.220;2024-03-08T10:27:00;102284.91;;;3.33;69.67
54022;BME280;39936;51.058;17.220;2024-03-08T10:30:29;102299.92;;;3.63;69.17
54022;BME280;39936;51.058;17.220;2024-03-08T10:33:49;102307.95;;;3.90;69.45
54022;BME280;39936;51.058;17.220;2024-03-08T10:37:15;102310.20;;;3.88;67.46
54022;BME280;39936;51.058;17.220;2024-03-08T10:40:41;102304.66;;;3.91;67.37
54022;BME280;39936;51.058;17.220;2024-03-08T10:44:10;102305.40;;;3.82;67.10
54022;BME280;39936;51.058;17.220;2024-03-08T10:47:38;102299.70;;;3.87;64.79
54022;BME280;39936;51.058;17.220;2024-03-08T10:51:03;102295.66;;;3.96;65.09
54022;BME280;39936;51.058;17.220;2024-03-08T10:54:26;102293.82;;;3.97;66.51
54022;BME280;39936;51.058;17.220;2024-03-08T10:57:51;102292.28;;;4.01;65.44
54022;BME280;39936;51.058;17.220;2024-03-08T11:01:22;102262.02;;;3.88;65.30
54022;BME280;39936;51.058;17.220;2024-03-08T11:04:47;102278.91;;;4.14;64.88
54022;BME280;39936;51.058;17.220;2024-03-08T11:11:39;102282.46;;;4.44;62.91
54022;BME280;39936;51.058;17.220;2024-03-08T11:15:12;102274.16;;;4.39;63.08
54022;BME280;39936;51.058;17.220;2024-03-08T11:18:34;102265.89;;;4.33;62.88
54022;BME280;39936;51.058;17.220;2024-03-08T11:21:59;102262.98;;;4.28;61.96
54022;BME280;39936;51.058;17.220;2024-03-08T11:28:55;102255.30;;;4.49;61.35
54022;BME280;39936;51.058;17.220;2024-03-08T11:32:16;102247.29;;;4.57;61.19
54022;BME280;39936;51.058;17.220;2024-03-08T11:35:43;102239.56;;;4.47;60.37
54022;BME280;39936;51.058;17.220;2024-03-08T11:39:07;102245.49;;;4.53;61.36
54022;BME280;39936;51.058;17.220;2024-03-08T11:42:37;102238.98;;;4.40;61.28
54022;BME280;39936;51.058;17.220;2024-03-08T11:46:09;102224.72;;;4.48;62.39
54022;BME280;39936;51.058;17.220;2024-03-08T11:49:28;102224.99;;;4.73;60.03
54022;BME280;39936;51.058;17.220;2024-03-08T11:53:03;102217.95;;;4.70;58.48
54022;BME280;39936;51.058;17.220;2024-03-08T11:56:25;102219.19;;;4.75;57.70
54022;BME280;39936;51.058;17.220;2024-03-08T11:59:52;102213.32;;;4.96;58.00
54022;BME280;39936;51.058;17.220;2024-03-08T12:03:16;102208.97;;;5.03;57.74
54022;BME280;39936;51.058;17.220;2024-03-08T12:06:41;102206.80;;;4.99;57.80
54022;BME280;39936;51.058;17.220;2024-03-08T12:13:38;102199.96;;;5.13;58.82
54022;BME280;39936;51.058;17.220;2024-03-08T12:17:04;102198.95;;;5.21;58.47
54022;BME280;39936;51.058;17.220;2024-03-08T12:20:31;102172.20;;;5.01;59.34
54022;BME280;39936;51.058;17.220;2024-03-08T12:24:03;102189.79;;;5.21;57.76
54022;BME280;39936;51.058;17.220;2024-03-08T12:27:19;102178.95;;;5.14;59.15
54022;BME280;39936;51.058;17.220;2024-03-08T12:30:47;102173.58;;;5.31;58.56
54022;BME280;39936;51.058;17.220;2024-03-08T12:34:06;102153.32;;;5.31;59.55
54022;BME280;39936;51.058;17.220;2024-03-08T12:37:32;102165.52;;;5.46;58.46
54022;BME280;39936;51.058;17.220;2024-03-08T12:40:49;102161.49;;;5.49;58.16
54022;BME280;39936;51.058;17.220;2024-03-08T12:44:12;102151.54;;;5.55;58.87
54022;BME280;39936;51.058;17.220;2024-03-08T12:47:39;102156.62;;;5.38;58.71
54022;BME280;39936;51.058;17.220;2024-03-08T12:51:07;102153.36;;;5.31;57.58
54022;BME280;39936;51.058;17.220;2024-03-08T12:54:33;102151.54;;;5.39;57.93
54022;BME280;39936;51.058;17.220;2024-03-08T12:57:55;102141.79;;;5.47;58.96
54022;BME280;39936;51.058;17.220;2024-03-08T13:01:18;102144.55;;;5.33;57.76
54022;BME280;39936;51.058;17.220;2024-03-08T13:04:39;102115.61;;;5.33;58.90
54022;BME280;39936;51.058;17.220;2024-03-08T13:08:04;102137.08;;;5.57;58.02
54022;BME280;39936;51.058;17.220;2024-03-08T13:11:34;102126.31;;;5.73;58.89
54022;BME280;39936;51.058;17.220;2024-03-08T13:15:01;102125.74;;;5.85;57.85
54022;BME280;39936;51.058;17.220;2024-03-08T13:18:28;102120.18;;;5.87;58.74
54022;BME280;39936;51.058;17.220;2024-03-08T13:21:46;102116.09;;;5.77;57.45
54022;BME280;39936;51.058;17.220;2024-03-08T13:25:09;102115.96;;;5.83;58.19
54022;BME280;39936;51.058;17.220;2024-03-08T13:28:32;102109.14;;;5.95;58.45
54022;BME280;39936;51.058;17.220;2024-03-08T13:31:57;102102.00;;;5.92;57.08
54022;BME280;39936;51.058;17.220;2024-03-08T13:35:22;102107.50;;;5.81;57.40
54022;BME280;39936;51.058;17.220;2024-03-08T13:38:47;102103.93;;;5.71;57.90
54022;BME280;39936;51.058;17.220;2024-03-08T13:42:09;102096.86;;;5.76;57.34
54022;BME280;39936;51.058;17.220;2024-03-08T13:45:36;102090.63;;;5.97;58.97
54022;BME280;39936;51.058;17.220;2024-03-08T13:49:03;102091.23;;;5.97;57.92
54022;BME280;39936;51.058;17.220;2024-03-08T13:52:22;102089.55;;;6.01;58.14
54022;BME280;39936;51.058;17.220;2024-03-08T13:55:49;102088.55;;;5.97;57.37
54022;BME280;39936;51.058;17.220;2024-03-08T13:59:15;102081.60;;;6.03;58.39
54022;BME280;39936;51.058;17.220;2024-03-08T14:02:35;102067.48;;;6.15;58.18
54022;BME280;39936;51.058;17.220;2024-03-08T14:05:53;102078.05;;;6.13;57.90
54022;BME280;39936;51.058;17.220;2024-03-08T14:09:13;102071.57;;;6.19;57.97
54022;BME280;39936;51.058;17.220;2024-03-08T14:12:30;102065.75;;;6.02;57.36
54022;BME280;39936;51.058;17.220;2024-03-08T14:15:48;102067.12;;;6.09;58.08
54022;BME280;39936;51.058;17.220;2024-03-08T14:19:14;102063.67;;;6.13;58.01
54022;BME280;39936;51.058;17.220;2024-03-08T14:22:36;102067.09;;;6.12;57.81
54022;BME280;39936;51.058;17.220;2024-03-08T14:26:00;102030.75;;;5.86;57.32
54022;BME280;39936;51.058;17.220;2024-03-08T14:29:18;102057.91;;;6.11;58.40
54022;BME280;39936;51.058;17.220;2024-03-08T14:32:35;102042.30;;;6.21;58.27
54022;BME280;39936;51.058;17.220;2024-03-08T14:35:56;102051.07;;;6.33;58.58
54022;BME280;39936;51.058;17.220;2024-03-08T14:39:16;102012.06;;;5.90;57.83
54022;BME280;39936;51.058;17.220;2024-03-08T14:42:46;102045.85;;;6.23;59.02
54022;BME280;39936;51.058;17.220;2024-03-08T14:46:07;102038.03;;;6.23;58.56
54022;BME280;39936;51.058;17.220;2024-03-08T14:49:25;102039.98;;;6.27;58.12
54022;BME280;39936;51.058;17.220;2024-03-08T14:52:41;102037.69;;;6.30;58.36
54022;BME280;39936;51.058;17.220;2024-03-08T14:55:58;102028.59;;;6.21;58.46
54022;BME280;39936;51.058;17.220;2024-03-08T14:59:18;102026.88;;;6.28;58.91
54022;BME280;39936;51.058;17.220;2024-03-08T15:02:39;102020.10;;;6.32;59.75
54022;BME280;39936;51.058;17.220;2024-03-08T15:05:57;102007.80;;;6.19;58.87
54022;BME280;39936;51.058;17.220;2024-03-08T15:09:19;102011.92;;;6.11;58.48
54022;BME280;39936;51.058;17.220;2024-03-08T15:12:41;102017.08;;;6.13;58.96
54022;BME280;39936;51.058;17.220;2024-03-08T15:16:08;102015.08;;;6.04;59.01
54022;BME280;39936;51.058;17.220;2024-03-08T15:19:37;101986.79;;;5.86;58.85
54022;BME280;39936;51.058;17.220;2024-03-08T15:23:00;102008.77;;;6.01;58.74
54022;BME280;39936;51.058;17.220;2024-03-08T15:26:25;102008.45;;;5.98;58.69
54022;BME280;39936;51.058;17.220;2024-03-08T15:29:50;102011.65;;;5.98;58.30
54022;BME280;39936;51.058;17.220;2024-03-08T15:33:14;102009.94;;;5.95;58.60
54022;BME280;39936;51.058;17.220;2024-03-08T15:36:45;102010.31;;;5.96;58.32
54022;BME280;39936;51.058;17.220;2024-03-08T15:40:07;102001.47;;;5.88;57.99
54022;BME280;39936;51.058;17.220;2024-03-08T15:43:36;102001.98;;;5.80;58.29
54022;BME280;39936;51.058;17.220;2024-03-08T15:46:56;102004.09;;;5.76;59.53
54022;BME280;39936;51.058;17.220;2024-03-08T15:50:26;102007.18;;;5.74;59.69
54022;BME280;39936;51.058;17.220;2024-03-08T15:53:47;102009.23;;;5.70;59.38
54022;BME280;39936;51.058;17.220;2024-03-08T15:57:22;102008.70;;;5.67;59.39
54022;BME280;39936;51.058;17.220;2024-03-08T16:00:46;102008.36;;;5.61;59.74
54022;BME280;39936;51.058;17.220;2024-03-08T16:04:13;102011.89;;;5.54;60.39
54022;BME280;39936;51.058;17.220;2024-03-08T16:07:48;102009.34;;;5.49;61.37
54022;BME280;39936;51.058;17.220;2024-03-08T16:11:20;101978.02;;;5.26;61.82
54022;BME280;39936;51.058;17.220;2024-03-08T16:14:39;102008.44;;;5.39;62.06
54022;BME280;39936;51.058;17.220;2024-03-08T16:18:00;101985.48;;;5.20;62.57
54022;BME280;39936;51.058;17.220;2024-03-08T16:21:26;101988.05;;;5.14;63.11
54022;BME280;39936;51.058;17.220;2024-03-08T16:24:46;102002.98;;;5.08;63.81
54022;BME280;39936;51.058;17.220;2024-03-08T16:28:13;102001.22;;;4.95;64.53
54022;BME280;39936;51.058;17.220;2024-03-08T16:31:44;101998.89;;;4.86;65.01
54022;BME280;39936;51.058;17.220;2024-03-08T16:35:22;102002.04;;;4.78;65.18
54022;BME280;39936;51.058;17.220;2024-03-08T16:38:48;101999.27;;;4.66;66.20
54022;BME280;39936;51.058;17.220;2024-03-08T16:42:13;101995.19;;;4.59;66.02
54022;BME280;39936;51.058;17.220;2024-03-08T16:45:38;101992.32;;;4.49;66.08
54022;BME280;39936;51.058;17.220;2024-03-08T16:49:01;101996.89;;;4.40;66.09
54022;BME280;39936;51.058;17.220;2024-03-08T16:52:25;102003.25;;;4.35;66.04
54022;BME280;39936;51.058;17.220;2024-03-08T16:55:53;101998.77;;;4.26;65.94
54022;BME280;39936;51.058;17.220;2024-03-08T16:59:23;101999.99;;;4.20;66.04
54022;BME280;39936;51.058;17.220;2024-03-08T17:02:40;102004.66;;;4.11;66.32
54022;BME280;39936;51.058;17.220;2024-03-08T17:06:02;102005.50;;;4.00;66.60
54022;BME280;39936;51.058;17.220;2024-03-08T17:09:32;102005.44;;;3.85;66.95
54022;BME280;39936;51.058;17.220;2024-03-08T17:12:57;102003.32;;;3.69;67.21
54022;BME280;39936;51.058;17.220;2024-03-08T17:16:16;102007.74;;;3.52;68.27
54022;BME280;39936;51.058;17.220;2024-03-08T17:19:44;102012.24;;;3.30;69.32
54022;BME280;39936;51.058;17.220;2024-03-08T17:23:13;102016.30;;;3.11;70.27
54022;BME280;39936;51.058;17.220;2024-03-08T17:26:36;102017.47;;;2.94;71.16
54022;BME280;39936;51.058;17.220;2024-03-08T17:30:02;102019.81;;;2.80;71.78
54022;BME280;39936;51.058;17.220;2024-03-08T17:33:38;102019.45;;;2.61;75.92
54022;BME280;39936;51.058;17.220;2024-03-08T17:37:01;102022.46;;;2.31;81.15
54022;BME280;39936;51.058;17.220;2024-03-08T17:40:30;102022.33;;;2.09;83.67
54022;BME280;39936;51.058;17.220;2024-03-08T17:43:54;102003.88;;;1.95;83.59